sensor_id;sensor_type;location;lat;lon;timestamp;P1;P2;P0
73687;PMS7003;62257;48.376;-4.378;2023-02-13T00:00:38;55.25;41.00;26.75
73687;PMS7003;62257;48.376;-4.378;2023-02-13T00:03:03;53.75;42.75;26.00
73687;PMS7003;62257;48.376;-4.378;2023-02-13T00:05:29;59.75;43.75;27.25
73687;PMS7003;62257;48.376;-4.378;2023-02-13T00:07:54;51.50;43.50;28.00
73687;PMS7003;62257;48.376;-4.378;2023-02-13T00:10:19;50.50;40.00;26.50
73687;PMS7003;62257;48.376;-4.378;2023-02-13T00:12:45;43.75;36.50;23.75
73687;PMS7003;62257;48.376;-4.378;2023-02-13T00:15:10;56.50;41.50;26.25
73687;PMS7003;62257;48.376;-4.378;2023-02-13T00:17:36;62.00;44.00;28.50
73687;PMS7003;62257;48.376;-4.378;2023-02-13T00:20:02;45.75;37.25;25.75
73687;PMS7003;62257;48.376;-4.378;2023-02-13T00:22:27;55.00;42.25;27.25
73687;PMS7003;62257;48.376;-4.378;2023-02-13T00:24:52;57.00;38.50;24.00
73687;PMS7003;62257;48.376;-4.378;2023-02-13T00:27:18;49.50;41.00;25.50
73687;PMS7003;62257;48.376;-4.378;2023-02-13T00:29:43;55.75;43.25;26.00
73687;PMS7003;62257;48.376;-4.378;2023-02-13T00:32:08;56.00;42.75;27.00
73687;PMS7003;62257;48.376;-4.378;2023-02-13T00:34:34;58.00;42.75;26.25
73687;PMS7003;62257;48.376;-4.378;2023-02-13T00:36:59;47.50;35.75;20.75
73687;PMS7003;62257;48.376;-4.378;2023-02-13T00:39:24;56.00;43.50;28.00
73687;PMS7003;62257;48.376;-4.378;2023-02-13T00:41:50;55.00;43.50;26.00
73687;PMS7003;62257;48.376;-4.378;2023-02-13T00:44:15;51.50;40.50;25.00
73687;PMS7003;62257;48.376;-4.378;2023-02-13T00:46:40;56.00;43.25;26.25
73687;PMS7003;62257;48.376;-4.378;2023-02-13T00:49:05;49.75;41.00;24.25
73687;PMS7003;62257;48.376;-4.378;2023-02-13T00:51:31;54.50;40.75;26.25
73687;PMS7003;62257;48.376;-4.378;2023-02-13T00:53:56;55.50;42.00;27.00
73687;PMS7003;62257;48.376;-4.378;2023-02-13T00:56:22;51.00;41.00;26.50
73687;PMS7003;62257;48.376;-4.378;2023-02-13T00:58:47;47.50;40.25;26.25
73687;PMS7003;62257;48.376;-4.378;2023-02-13T01:01:13;54.25;41.25;25.00
73687;PMS7003;62257;48.376;-4.378;2023-02-13T01:03:38;58.75;44.00;25.00
73687;PMS7003;62257;48.376;-4.378;2023-02-13T01:06:03;49.25;38.00;24.25
73687;PMS7003;62257;48.376;-4.378;2023-02-13T01:08:29;53.25;41.25;26.75
73687;PMS7003;62257;48.376;-4.378;2023-02-13T01:10:54;57.00;45.25;27.50
73687;PMS7003;62257;48.376;-4.378;2023-02-13T01:13:20;58.75;44.50;28.75
73687;PMS7003;62257;48.376;-4.378;2023-02-13T01:15:45;53.50;42.00;27.75
73687;PMS7003;62257;48.376;-4.378;2023-02-13T01:18:12;47.50;39.25;24.25
73687;PMS7003;62257;48.376;-4.378;2023-02-13T01:20:37;60.00;44.75;27.00
73687;PMS7003;62257;48.376;-4.378;2023-02-13T01:23:03;57.75;45.00;28.75
73687;PMS7003;62257;48.376;-4.378;2023-02-13T01:25:28;49.50;40.00;26.50
73687;PMS7003;62257;48.376;-4.378;2023-02-13T01:27:54;46.75;39.75;26.25
73687;PMS7003;62257;48.376;-4.378;2023-02-13T01:30:19;49.25;42.00;27.50
73687;PMS7003;62257;48.376;-4.378;2023-02-13T01:32:45;52.75;41.75;27.00
73687;PMS7003;62257;48.376;-4.378;2023-02-13T01:35:11;54.00;43.50;27.50
73687;PMS7003;62257;48.376;-4.378;2023-02-13T01:37:37;54.50;41.00;28.00
73687;PMS7003;62257;48.376;-4.378;2023-02-13T01:40:03;58.75;45.00;29.00
73687;PMS7003;62257;48.376;-4.378;2023-02-13T01:42:30;49.25;39.75;24.50
73687;PMS7003;62257;48.376;-4.378;2023-02-13T01:44:59;58.50;42.50;25.75
73687;PMS7003;62257;48.376;-4.378;2023-02-13T01:47:25;58.50;43.50;25.75
73687;PMS7003;62257;48.376;-4.378;2023-02-13T01:50:01;48.50;41.25;27.50
73687;PMS7003;62257;48.376;-4.378;2023-02-13T01:52:28;48.75;40.00;26.00
73687;PMS7003;62257;48.376;-4.378;2023-02-13T01:54:54;54.50;42.25;28.00
73687;PMS7003;62257;48.376;-4.378;2023-02-13T01:57:20;52.25;40.75;26.75
73687;PMS7003;62257;48.376;-4.378;2023-02-13T01:59:47;58.50;44.25;28.25
73687;PMS7003;62257;48.376;-4.378;2023-02-13T02:02:13;46.50;40.75;25.25
73687;PMS7003;62257;48.376;-4.378;2023-02-13T02:04:39;56.75;45.50;29.25
73687;PMS7003;62257;48.376;-4.378;2023-02-13T02:07:07;51.25;41.50;26.75
73687;PMS7003;62257;48.376;-4.378;2023-02-13T02:09:37;50.25;41.50;25.00
73687;PMS7003;62257;48.376;-4.378;2023-02-13T02:12:05;57.50;47.00;28.25
73687;PMS7003;62257;48.376;-4.378;2023-02-13T02:14:33;51.75;41.00;26.75
73687;PMS7003;62257;48.376;-4.378;2023-02-13T02:16:59;59.00;42.25;27.00
73687;PMS7003;62257;48.376;-4.378;2023-02-13T02:32:38;48.50;39.50;27.75
73687;PMS7003;62257;48.376;-4.378;2023-02-13T02:35:26;50.00;42.75;28.50
73687;PMS7003;62257;48.376;-4.378;2023-02-13T02:38:00;51.50;41.50;27.25
73687;PMS7003;62257;48.376;-4.378;2023-02-13T02:48:20;45.00;40.00;24.25
73687;PMS7003;62257;48.376;-4.378;2023-02-13T02:51:11;50.50;39.75;25.50
73687;PMS7003;62257;48.376;-4.378;2023-02-13T02:56:35;50.75;42.50;28.00
73687;PMS7003;62257;48.376;-4.378;2023-02-13T02:59:03;55.50;45.25;27.00
73687;PMS7003;62257;48.376;-4.378;2023-02-13T03:01:48;56.25;42.25;27.50
73687;PMS7003;62257;48.376;-4.378;2023-02-13T03:04:39;60.00;44.00;28.25
73687;PMS7003;62257;48.376;-4.378;2023-02-13T03:07:25;58.75;43.50;27.50
73687;PMS7003;62257;48.376;-4.378;2023-02-13T03:09:51;49.75;39.75;25.50
73687;PMS7003;62257;48.376;-4.378;2023-02-13T03:12:37;49.00;42.00;26.50
73687;PMS7003;62257;48.376;-4.378;2023-02-13T03:15:22;54.75;41.25;26.50
73687;PMS7003;62257;48.376;-4.378;2023-02-13T03:17:49;52.00;42.25;25.25
73687;PMS7003;62257;48.376;-4.378;2023-02-13T03:20:46;52.25;42.25;27.00
73687;PMS7003;62257;48.376;-4.378;2023-02-13T03:28:33;52.00;43.75;28.00
73687;PMS7003;62257;48.376;-4.378;2023-02-13T03:39:39;58.50;44.75;27.50
73687;PMS7003;62257;48.376;-4.378;2023-02-13T03:42:17;47.25;41.50;28.00
73687;PMS7003;62257;48.376;-4.378;2023-02-13T03:47:36;60.75;45.50;26.25
73687;PMS7003;62257;48.376;-4.378;2023-02-13T03:50:03;62.25;42.00;26.75
73687;PMS7003;62257;48.376;-4.378;2023-02-13T03:55:17;59.00;43.75;28.25
73687;PMS7003;62257;48.376;-4.378;2023-02-13T03:58:04;50.50;41.25;27.25
73687;PMS7003;62257;48.376;-4.378;2023-02-13T04:00:51;54.25;43.00;26.75
73687;PMS7003;62257;48.376;-4.378;2023-02-13T04:05:48;58.25;45.25;28.25
73687;PMS7003;62257;48.376;-4.378;2023-02-13T04:08:14;56.75;43.00;26.75
73687;PMS7003;62257;48.376;-4.378;2023-02-13T04:10:43;58.25;45.50;28.25
73687;PMS7003;62257;48.376;-4.378;2023-02-13T04:13:15;50.50;42.25;28.00
73687;PMS7003;62257;48.376;-4.378;2023-02-13T04:15:47;58.00;43.50;27.25
73687;PMS7003;62257;48.376;-4.378;2023-02-13T04:18:21;64.00;48.00;28.25
73687;PMS7003;62257;48.376;-4.378;2023-02-13T04:20:47;58.25;45.00;28.25
73687;PMS7003;62257;48.376;-4.378;2023-02-13T04:23:12;53.00;44.50;28.00
73687;PMS7003;62257;48.376;-4.378;2023-02-13T04:25:40;57.75;45.25;28.00
73687;PMS7003;62257;48.376;-4.378;2023-02-13T04:28:05;55.00;45.25;27.00
73687;PMS7003;62257;48.376;-4.378;2023-02-13T04:30:31;58.75;43.50;28.75
73687;PMS7003;62257;48.376;-4.378;2023-02-13T04:32:56;61.00;45.25;28.50
73687;PMS7003;62257;48.376;-4.378;2023-02-13T04:35:21;57.25;46.00;28.25
73687;PMS7003;62257;48.376;-4.378;2023-02-13T04:37:47;54.50;42.50;27.00
73687;PMS7003;62257;48.376;-4.378;2023-02-13T04:40:12;50.50;41.25;25.75
73687;PMS7003;62257;48.376;-4.378;2023-02-13T04:42:37;59.25;45.75;28.75
73687;PMS7003;62257;48.376;-4.378;2023-02-13T04:45:03;53.00;42.25;29.00
73687;PMS7003;62257;48.376;-4.378;2023-02-13T04:47:28;56.75;45.75;28.00
73687;PMS7003;62257;48.376;-4.378;2023-02-13T04:49:53;57.00;46.25;29.25
73687;PMS7003;62257;48.376;-4.378;2023-02-13T04:52:19;58.25;45.25;28.25
73687;PMS7003;62257;48.376;-4.378;2023-02-13T04:54:44;59.00;45.50;27.75
73687;PMS7003;62257;48.376;-4.378;2023-02-13T04:57:09;57.25;41.75;28.25
73687;PMS7003;62257;48.376;-4.378;2023-02-13T04:59:34;55.50;44.00;29.25
73687;PMS7003;62257;48.376;-4.378;2023-02-13T05:02:00;51.75;43.75;28.25
73687;PMS7003;62257;48.376;-4.378;2023-02-13T05:04:25;53.75;41.50;27.00
73687;PMS7003;62257;48.376;-4.378;2023-02-13T05:06:50;59.75;42.00;28.00
73687;PMS7003;62257;48.376;-4.378;2023-02-13T05:09:16;60.00;44.25;28.25
73687;PMS7003;62257;48.376;-4.378;2023-02-13T05:11:41;51.00;42.00;27.00
73687;PMS7003;62257;48.376;-4.378;2023-02-13T05:14:06;64.75;50.75;30.25
73687;PMS7003;62257;48.376;-4.378;2023-02-13T05:16:32;57.25;45.75;28.25
73687;PMS7003;62257;48.376;-4.378;2023-02-13T05:18:57;58.75;43.25;23.75
73687;PMS7003;62257;48.376;-4.378;2023-02-13T05:21:22;55.00;40.75;26.25
73687;PMS7003;62257;48.376;-4.378;2023-02-13T05:24:06;57.75;43.50;28.25
73687;PMS7003;62257;48.376;-4.378;2023-02-13T05:26:32;59.50;46.00;28.25
73687;PMS7003;62257;48.376;-4.378;2023-02-13T05:28:57;55.50;43.25;27.25
73687;PMS7003;62257;48.376;-4.378;2023-02-13T05:31:41;58.00;46.50;26.00
73687;PMS7003;62257;48.376;-4.378;2023-02-13T05:34:06;55.00;46.00;28.75
73687;PMS7003;62257;48.376;-4.378;2023-02-13T05:36:32;50.25;41.50;28.25
73687;PMS7003;62257;48.376;-4.378;2023-02-13T05:38:57;60.50;43.50;27.50
73687;PMS7003;62257;48.376;-4.378;2023-02-13T05:41:22;60.50;47.25;27.75
73687;PMS7003;62257;48.376;-4.378;2023-02-13T05:43:47;55.25;44.25;28.50
73687;PMS7003;62257;48.376;-4.378;2023-02-13T05:46:13;46.25;38.00;26.00
73687;PMS7003;62257;48.376;-4.378;2023-02-13T05:48:38;57.75;44.25;27.75
73687;PMS7003;62257;48.376;-4.378;2023-02-13T05:51:03;50.50;41.50;28.25
73687;PMS7003;62257;48.376;-4.378;2023-02-13T05:53:29;54.25;41.75;26.50
73687;PMS7003;62257;48.376;-4.378;2023-02-13T05:55:54;50.75;40.75;25.50
73687;PMS7003;62257;48.376;-4.378;2023-02-13T05:58:20;60.50;44.50;28.00
73687;PMS7003;62257;48.376;-4.378;2023-02-13T06:00:45;56.75;43.50;28.50
73687;PMS7003;62257;48.376;-4.378;2023-02-13T06:03:11;57.25;44.75;29.50
73687;PMS7003;62257;48.376;-4.378;2023-02-13T06:05:36;64.50;47.25;29.75
73687;PMS7003;62257;48.376;-4.378;2023-02-13T06:08:02;57.50;42.00;28.00
73687;PMS7003;62257;48.376;-4.378;2023-02-13T06:10:27;58.50;43.50;29.25
73687;PMS7003;62257;48.376;-4.378;2023-02-13T06:12:52;59.25;43.50;30.00
73687;PMS7003;62257;48.376;-4.378;2023-02-13T06:15:17;51.75;42.75;28.75
73687;PMS7003;62257;48.376;-4.378;2023-02-13T06:17:43;61.75;46.75;29.25
73687;PMS7003;62257;48.376;-4.378;2023-02-13T06:20:08;63.50;45.50;29.00
73687;PMS7003;62257;48.376;-4.378;2023-02-13T06:22:33;63.00;46.50;30.00
73687;PMS7003;62257;48.376;-4.378;2023-02-13T06:24:59;57.75;42.00;30.00
73687;PMS7003;62257;48.376;-4.378;2023-02-13T06:27:24;60.50;44.50;27.25
73687;PMS7003;62257;48.376;-4.378;2023-02-13T06:29:49;58.75;42.75;26.25
73687;PMS7003;62257;48.376;-4.378;2023-02-13T06:32:15;59.50;46.75;28.00
73687;PMS7003;62257;48.376;-4.378;2023-02-13T06:34:40;62.00;43.50;29.25
73687;PMS7003;62257;48.376;-4.378;2023-02-13T06:37:05;66.25;47.75;29.50
73687;PMS7003;62257;48.376;-4.378;2023-02-13T06:39:30;56.75;42.25;28.75
73687;PMS7003;62257;48.376;-4.378;2023-02-13T06:41:56;59.00;46.00;28.00
73687;PMS7003;62257;48.376;-4.378;2023-02-13T06:44:21;53.50;44.00;28.00
73687;PMS7003;62257;48.376;-4.378;2023-02-13T06:46:46;62.25;42.25;26.00
73687;PMS7003;62257;48.376;-4.378;2023-02-13T06:49:12;51.75;41.75;26.75
73687;PMS7003;62257;48.376;-4.378;2023-02-13T06:51:37;58.25;44.50;28.25
73687;PMS7003;62257;48.376;-4.378;2023-02-13T06:54:02;60.50;45.25;28.25
73687;PMS7003;62257;48.376;-4.378;2023-02-13T06:56:29;54.25;43.50;29.50
73687;PMS7003;62257;48.376;-4.378;2023-02-13T06:58:54;56.50;46.50;28.25
73687;PMS7003;62257;48.376;-4.378;2023-02-13T07:01:19;58.75;43.00;25.25
73687;PMS7003;62257;48.376;-4.378;2023-02-13T07:03:45;48.00;42.75;28.25
73687;PMS7003;62257;48.376;-4.378;2023-02-13T07:06:16;65.00;48.00;28.25
73687;PMS7003;62257;48.376;-4.378;2023-02-13T07:08:41;59.00;46.25;29.50
73687;PMS7003;62257;48.376;-4.378;2023-02-13T07:11:06;59.50;45.75;29.75
73687;PMS7003;62257;48.376;-4.378;2023-02-13T07:13:31;65.25;49.00;27.50
73687;PMS7003;62257;48.376;-4.378;2023-02-13T07:15:59;59.00;47.50;29.25
73687;PMS7003;62257;48.376;-4.378;2023-02-13T07:18:24;58.75;45.50;29.00
73687;PMS7003;62257;48.376;-4.378;2023-02-13T07:20:50;63.00;47.50;29.50
73687;PMS7003;62257;48.376;-4.378;2023-02-13T07:23:16;67.25;47.00;29.25
73687;PMS7003;62257;48.376;-4.378;2023-02-13T07:25:41;60.00;43.25;28.50
73687;PMS7003;62257;48.376;-4.378;2023-02-13T07:28:06;60.00;43.25;28.75
73687;PMS7003;62257;48.376;-4.378;2023-02-13T07:30:32;63.75;50.75;30.00
73687;PMS7003;62257;48.376;-4.378;2023-02-13T07:33:01;57.00;42.50;26.00
73687;PMS7003;62257;48.376;-4.378;2023-02-13T07:35:26;63.50;49.00;29.25
73687;PMS7003;62257;48.376;-4.378;2023-02-13T07:37:52;55.00;45.00;26.50
73687;PMS7003;62257;48.376;-4.378;2023-02-13T07:40:17;56.75;43.50;29.00
73687;PMS7003;62257;48.376;-4.378;2023-02-13T07:42:42;60.00;47.00;30.00
73687;PMS7003;62257;48.376;-4.378;2023-02-13T07:45:08;58.25;43.00;27.25
73687;PMS7003;62257;48.376;-4.378;2023-02-13T07:47:33;20.75;17.25;0.00
73687;PMS7003;62257;48.376;-4.378;2023-02-13T07:49:59;56.75;48.00;29.75
73687;PMS7003;62257;48.376;-4.378;2023-02-13T07:52:24;63.25;50.75;30.00
73687;PMS7003;62257;48.376;-4.378;2023-02-13T07:54:49;52.75;43.00;28.00
73687;PMS7003;62257;48.376;-4.378;2023-02-13T07:57:15;54.25;44.00;28.50
73687;PMS7003;62257;48.376;-4.378;2023-02-13T07:59:41;55.25;44.25;26.50
73687;PMS7003;62257;48.376;-4.378;2023-02-13T08:02:09;60.25;46.50;28.50
73687;PMS7003;62257;48.376;-4.378;2023-02-13T08:04:35;60.50;43.75;27.50
73687;PMS7003;62257;48.376;-4.378;2023-02-13T08:07:00;61.50;50.00;30.25
73687;PMS7003;62257;48.376;-4.378;2023-02-13T08:09:25;63.00;47.00;29.00
73687;PMS7003;62257;48.376;-4.378;2023-02-13T08:12:09;64.50;46.75;30.00
73687;PMS7003;62257;48.376;-4.378;2023-02-13T08:14:35;61.25;48.50;26.50
73687;PMS7003;62257;48.376;-4.378;2023-02-13T08:17:00;59.25;45.50;28.00
73687;PMS7003;62257;48.376;-4.378;2023-02-13T08:19:26;56.75;44.50;29.00
73687;PMS7003;62257;48.376;-4.378;2023-02-13T08:21:51;53.00;44.50;29.75
73687;PMS7003;62257;48.376;-4.378;2023-02-13T08:24:17;64.25;46.25;30.25
73687;PMS7003;62257;48.376;-4.378;2023-02-13T08:26:42;51.50;42.25;26.00
73687;PMS7003;62257;48.376;-4.378;2023-02-13T08:29:07;57.00;45.75;30.00
73687;PMS7003;62257;48.376;-4.378;2023-02-13T08:31:33;60.75;44.00;28.50
73687;PMS7003;62257;48.376;-4.378;2023-02-13T08:33:58;65.25;49.25;30.25
73687;PMS7003;62257;48.376;-4.378;2023-02-13T08:36:23;55.75;43.75;28.00
73687;PMS7003;62257;48.376;-4.378;2023-02-13T08:38:49;59.50;44.00;26.00
73687;PMS7003;62257;48.376;-4.378;2023-02-13T08:41:14;57.50;45.25;29.00
73687;PMS7003;62257;48.376;-4.378;2023-02-13T08:43:41;62.75;46.25;26.00
73687;PMS7003;62257;48.376;-4.378;2023-02-13T08:46:07;61.00;43.75;28.25
73687;PMS7003;62257;48.376;-4.378;2023-02-13T08:48:32;58.25;48.00;29.00
73687;PMS7003;62257;48.376;-4.378;2023-02-13T08:50:58;58.75;46.50;28.75
73687;PMS7003;62257;48.376;-4.378;2023-02-13T08:53:23;60.00;46.75;30.00
73687;PMS7003;62257;48.376;-4.378;2023-02-13T08:55:55;67.50;50.50;31.25
73687;PMS7003;62257;48.376;-4.378;2023-02-13T08:58:20;64.25;50.75;32.75
73687;PMS7003;62257;48.376;-4.378;2023-02-13T09:00:46;59.00;45.50;28.25
73687;PMS7003;62257;48.376;-4.378;2023-02-13T09:03:11;46.25;29.25;8.50
73687;PMS7003;62257;48.376;-4.378;2023-02-13T09:05:36;61.00;47.00;29.25
73687;PMS7003;62257;48.376;-4.378;2023-02-13T09:08:02;66.25;49.25;30.25
73687;PMS7003;62257;48.376;-4.378;2023-02-13T09:10:28;70.75;54.00;33.25
73687;PMS7003;62257;48.376;-4.378;2023-02-13T09:12:53;65.25;53.00;34.75
73687;PMS7003;62257;48.376;-4.378;2023-02-13T09:15:19;67.25;53.25;33.75
73687;PMS7003;62257;48.376;-4.378;2023-02-13T09:17:44;66.00;53.50;34.00
73687;PMS7003;62257;48.376;-4.378;2023-02-13T09:20:09;58.25;48.00;32.25
73687;PMS7003;62257;48.376;-4.378;2023-02-13T09:22:37;61.00;47.25;32.00
73687;PMS7003;62257;48.376;-4.378;2023-02-13T09:25:03;63.25;48.25;32.00
73687;PMS7003;62257;48.376;-4.378;2023-02-13T09:27:29;64.50;48.50;32.25
73687;PMS7003;62257;48.376;-4.378;2023-02-13T09:29:54;63.25;51.50;33.00
73687;PMS7003;62257;48.376;-4.378;2023-02-13T09:32:19;59.00;47.75;30.00
73687;PMS7003;62257;48.376;-4.378;2023-02-13T09:34:45;67.00;52.25;32.75
73687;PMS7003;62257;48.376;-4.378;2023-02-13T09:37:10;64.00;48.00;28.75
73687;PMS7003;62257;48.376;-4.378;2023-02-13T09:39:35;62.00;48.75;32.00
73687;PMS7003;62257;48.376;-4.378;2023-02-13T09:42:01;57.00;46.50;31.25
73687;PMS7003;62257;48.376;-4.378;2023-02-13T09:49:39;63.25;50.75;29.50
73687;PMS7003;62257;48.376;-4.378;2023-02-13T09:52:06;55.50;46.00;27.00
73687;PMS7003;62257;48.376;-4.378;2023-02-13T09:54:33;59.75;48.50;31.00
73687;PMS7003;62257;48.376;-4.378;2023-02-13T09:57:00;60.50;44.75;28.75
73687;PMS7003;62257;48.376;-4.378;2023-02-13T09:59:38;57.50;45.75;28.25
73687;PMS7003;62257;48.376;-4.378;2023-02-13T10:02:33;60.00;47.25;28.75
73687;PMS7003;62257;48.376;-4.378;2023-02-13T10:07:41;53.00;38.75;27.00
73687;PMS7003;62257;48.376;-4.378;2023-02-13T10:15:47;51.50;43.75;29.00
73687;PMS7003;62257;48.376;-4.378;2023-02-13T10:17:47;56.00;45.25;29.25
73687;PMS7003;62257;48.376;-4.378;2023-02-13T10:22:47;62.25;46.00;29.25
73687;PMS7003;62257;48.376;-4.378;2023-02-13T10:25:47;58.50;46.00;29.50
73687;PMS7003;62257;48.376;-4.378;2023-02-13T10:28:06;55.25;43.50;29.25
73687;PMS7003;62257;48.376;-4.378;2023-02-13T10:30:36;57.25;43.75;27.50
73687;PMS7003;62257;48.376;-4.378;2023-02-13T10:35:46;54.25;43.75;30.00
73687;PMS7003;62257;48.376;-4.378;2023-02-13T10:38:13;52.50;43.50;27.00
73687;PMS7003;62257;48.376;-4.378;2023-02-13T10:40:41;60.00;46.00;28.00
73687;PMS7003;62257;48.376;-4.378;2023-02-13T10:43:07;68.75;49.50;30.50
73687;PMS7003;62257;48.376;-4.378;2023-02-13T10:53:45;58.75;48.00;30.50
73687;PMS7003;62257;48.376;-4.378;2023-02-13T11:03:44;59.00;44.25;28.00
73687;PMS7003;62257;48.376;-4.378;2023-02-13T11:06:13;51.50;39.25;25.50
73687;PMS7003;62257;48.376;-4.378;2023-02-13T11:08:43;48.75;40.75;27.25
73687;PMS7003;62257;48.376;-4.378;2023-02-13T11:11:29;54.50;44.00;28.75
73687;PMS7003;62257;48.376;-4.378;2023-02-13T11:14:08;52.00;41.25;28.00
73687;PMS7003;62257;48.376;-4.378;2023-02-13T11:16:38;56.50;43.25;28.50
73687;PMS7003;62257;48.376;-4.378;2023-02-13T11:19:04;55.25;42.75;27.25
73687;PMS7003;62257;48.376;-4.378;2023-02-13T11:21:33;52.00;39.75;25.50
73687;PMS7003;62257;48.376;-4.378;2023-02-13T11:23:59;46.25;40.50;26.75
73687;PMS7003;62257;48.376;-4.378;2023-02-13T11:26:35;52.50;42.50;27.00
73687;PMS7003;62257;48.376;-4.378;2023-02-13T11:29:21;52.25;39.25;26.00
73687;PMS7003;62257;48.376;-4.378;2023-02-13T11:31:59;54.00;42.50;28.75
73687;PMS7003;62257;48.376;-4.378;2023-02-13T11:34:25;54.25;41.00;26.75
73687;PMS7003;62257;48.376;-4.378;2023-02-13T11:36:52;45.25;37.50;26.00
73687;PMS7003;62257;48.376;-4.378;2023-02-13T11:39:18;53.75;39.25;24.25
73687;PMS7003;62257;48.376;-4.378;2023-02-13T11:41:45;47.25;39.25;26.50
73687;PMS7003;62257;48.376;-4.378;2023-02-13T11:44:24;57.25;45.00;27.75
73687;PMS7003;62257;48.376;-4.378;2023-02-13T11:46:50;51.50;41.00;27.00
73687;PMS7003;62257;48.376;-4.378;2023-02-13T11:49:23;57.50;42.00;26.00
73687;PMS7003;62257;48.376;-4.378;2023-02-13T11:51:50;48.75;38.75;26.00
73687;PMS7003;62257;48.376;-4.378;2023-02-13T11:59:22;53.00;42.75;26.00
73687;PMS7003;62257;48.376;-4.378;2023-02-13T12:02:02;49.00;38.00;25.50
73687;PMS7003;62257;48.376;-4.378;2023-02-13T12:04:27;46.00;38.50;25.75
73687;PMS7003;62257;48.376;-4.378;2023-02-13T12:06:57;47.50;38.00;25.25
73687;PMS7003;62257;48.376;-4.378;2023-02-13T12:09:22;40.50;35.50;23.50
73687;PMS7003;62257;48.376;-4.378;2023-02-13T12:11:48;45.50;37.75;23.25
73687;PMS7003;62257;48.376;-4.378;2023-02-13T12:14:17;50.50;40.00;26.25
73687;PMS7003;62257;48.376;-4.378;2023-02-13T12:16:52;47.00;38.50;25.50
73687;PMS7003;62257;48.376;-4.378;2023-02-13T12:19:20;47.75;39.25;25.75
73687;PMS7003;62257;48.376;-4.378;2023-02-13T12:24:59;51.25;38.25;24.50
73687;PMS7003;62257;48.376;-4.378;2023-02-13T12:32:04;48.50;38.50;25.00
73687;PMS7003;62257;48.376;-4.378;2023-02-13T12:37:16;46.50;37.50;26.00
73687;PMS7003;62257;48.376;-4.378;2023-02-13T12:39:51;53.25;40.00;26.00
73687;PMS7003;62257;48.376;-4.378;2023-02-13T12:45:30;48.00;40.50;27.25
73687;PMS7003;62257;48.376;-4.378;2023-02-13T12:53:30;50.25;38.00;23.25
73687;PMS7003;62257;48.376;-4.378;2023-02-13T12:56:20;50.25;41.00;27.00
73687;PMS7003;62257;48.376;-4.378;2023-02-13T13:03:54;55.50;41.75;27.00
73687;PMS7003;62257;48.376;-4.378;2023-02-13T13:21:16;50.25;38.25;26.00
73687;PMS7003;62257;48.376;-4.378;2023-02-13T13:23:48;53.00;43.00;26.50
73687;PMS7003;62257;48.376;-4.378;2023-02-13T13:26:34;46.75;38.50;25.50
73687;PMS7003;62257;48.376;-4.378;2023-02-13T13:29:02;46.25;39.75;25.75
73687;PMS7003;62257;48.376;-4.378;2023-02-13T13:31:30;48.25;37.00;26.25
73687;PMS7003;62257;48.376;-4.378;2023-02-13T13:33:59;44.00;38.75;24.25
73687;PMS7003;62257;48.376;-4.378;2023-02-13T13:41:26;44.50;37.75;24.50
73687;PMS7003;62257;48.376;-4.378;2023-02-13T13:46:21;48.00;38.75;25.75
73687;PMS7003;62257;48.376;-4.378;2023-02-13T13:51:23;42.25;35.25;24.00
73687;PMS7003;62257;48.376;-4.378;2023-02-13T13:56:23;43.00;34.50;21.75
73687;PMS7003;62257;48.376;-4.378;2023-02-13T13:58:48;34.25;30.25;21.00
73687;PMS7003;62257;48.376;-4.378;2023-02-13T14:03:50;34.00;33.25;22.25
73687;PMS7003;62257;48.376;-4.378;2023-02-13T14:06:16;30.50;28.25;19.25
73687;PMS7003;62257;48.376;-4.378;2023-02-13T14:13:54;20.50;19.00;10.25
73687;PMS7003;62257;48.376;-4.378;2023-02-13T14:16:39;32.25;25.00;17.75
73687;PMS7003;62257;48.376;-4.378;2023-02-13T14:19:05;33.25;26.50;18.00
73687;PMS7003;62257;48.376;-4.378;2023-02-13T14:21:45;27.00;23.25;17.25
73687;PMS7003;62257;48.376;-4.378;2023-02-13T14:24:10;27.00;22.25;15.25
73687;PMS7003;62257;48.376;-4.378;2023-02-13T14:26:37;31.50;26.75;19.00
73687;PMS7003;62257;48.376;-4.378;2023-02-13T14:31:35;30.50;25.25;19.50
73687;PMS7003;62257;48.376;-4.378;2023-02-13T14:36:30;23.75;21.00;14.50
73687;PMS7003;62257;48.376;-4.378;2023-02-13T14:38:59;33.25;28.00;18.25
73687;PMS7003;62257;48.376;-4.378;2023-02-13T14:46:54;32.25;27.75;19.50
73687;PMS7003;62257;48.376;-4.378;2023-02-13T14:49:22;29.25;25.50;17.75
73687;PMS7003;62257;48.376;-4.378;2023-02-13T14:51:49;25.25;25.25;17.00
73687;PMS7003;62257;48.376;-4.378;2023-02-13T14:56:45;29.25;27.50;17.25
73687;PMS7003;62257;48.376;-4.378;2023-02-13T15:01:56;26.75;23.00;17.50
73687;PMS7003;62257;48.376;-4.378;2023-02-13T15:04:29;26.75;25.25;16.75
73687;PMS7003;62257;48.376;-4.378;2023-02-13T15:06:55;29.75;27.50;17.75
73687;PMS7003;62257;48.376;-4.378;2023-02-13T15:09:27;33.75;27.50;18.75
73687;PMS7003;62257;48.376;-4.378;2023-02-13T15:11:54;27.00;22.25;15.75
73687;PMS7003;62257;48.376;-4.378;2023-02-13T15:14:26;33.25;25.00;15.75
73687;PMS7003;62257;48.376;-4.378;2023-02-13T15:16:58;26.75;23.75;18.00
73687;PMS7003;62257;48.376;-4.378;2023-02-13T15:19:25;26.50;23.50;18.25
73687;PMS7003;62257;48.376;-4.378;2023-02-13T15:21:53;23.75;22.50;16.50
73687;PMS7003;62257;48.376;-4.378;2023-02-13T15:24:19;29.75;26.50;17.25
73687;PMS7003;62257;48.376;-4.378;2023-02-13T15:26:54;30.50;24.25;19.75
73687;PMS7003;62257;48.376;-4.378;2023-02-13T15:29:20;24.25;20.50;16.50
73687;PMS7003;62257;48.376;-4.378;2023-02-13T15:31:46;24.25;22.50;15.50
73687;PMS7003;62257;48.376;-4.378;2023-02-13T15:34:44;22.25;21.50;15.50
73687;PMS7003;62257;48.376;-4.378;2023-02-13T15:37:02;25.25;23.00;16.00
73687;PMS7003;62257;48.376;-4.378;2023-02-13T15:39:29;21.00;19.75;15.25
73687;PMS7003;62257;48.376;-4.378;2023-02-13T15:41:55;20.50;17.00;12.00
73687;PMS7003;62257;48.376;-4.378;2023-02-13T15:44:26;24.00;21.00;15.00
73687;PMS7003;62257;48.376;-4.378;2023-02-13T15:46:53;23.25;23.25;16.00
73687;PMS7003;62257;48.376;-4.378;2023-02-13T15:49:22;23.00;21.25;16.75
73687;PMS7003;62257;48.376;-4.378;2023-02-13T15:51:48;25.25;20.75;15.00
73687;PMS7003;62257;48.376;-4.378;2023-02-13T15:56:48;20.25;17.25;14.75
73687;PMS7003;62257;48.376;-4.378;2023-02-13T15:59:15;20.25;19.25;14.25
73687;PMS7003;62257;48.376;-4.378;2023-02-13T16:01:42;22.25;17.25;11.25
73687;PMS7003;62257;48.376;-4.378;2023-02-13T16:04:11;24.75;23.00;16.50
73687;PMS7003;62257;48.376;-4.378;2023-02-13T16:06:37;23.00;19.00;14.00
73687;PMS7003;62257;48.376;-4.378;2023-02-13T16:09:04;22.00;20.00;15.25
73687;PMS7003;62257;48.376;-4.378;2023-02-13T16:11:36;26.00;21.00;15.50
73687;PMS7003;62257;48.376;-4.378;2023-02-13T16:16:42;23.50;20.25;15.25
73687;PMS7003;62257;48.376;-4.378;2023-02-13T16:21:53;21.75;20.25;14.75
73687;PMS7003;62257;48.376;-4.378;2023-02-13T16:24:20;20.75;18.00;13.75
73687;PMS7003;62257;48.376;-4.378;2023-02-13T16:26:45;24.75;22.50;16.25